sensor_id;sensor_type;location;lat;lon;timestamp;P1;durP1;ratioP1;P2;durP2;ratioP2
2408;SDS011;8463;48.094;7.970;2023-09-08T00:01:36;8.73;;;6.50;;
2408;SDS011;8463;48.094;7.970;2023-09-08T00:04:01;6.83;;;6.07;;
2408;SDS011;8463;48.094;7.970;2023-09-08T00:06:29;7.80;;;6.47;;
2408;SDS011;8463;48.094;7.970;2023-09-08T00:08:54;6.63;;;6.03;;
2408;SDS011;8463;48.094;7.970;2023-09-08T00:11:20;6.60;;;5.90;;
2408;SDS011;8463;48.094;7.970;2023-09-08T00:13:45;7.60;;;6.93;;
2408;SDS011;8463;48.094;7.970;2023-09-08T00:16:15;6.47;;;5.87;;
2408;SDS011;8463;48.094;7.970;2023-09-08T00:18:43;5.97;;;5.47;;
2408;SDS011;8463;48.094;7.970;2023-09-08T00:21:12;7.20;;;6.70;;
2408;SDS011;8463;48.094;7.970;2023-09-08T00:23:37;6.83;;;6.23;;
2408;SDS011;8463;48.094;7.970;2023-09-08T00:26:03;6.30;;;5.70;;
2408;SDS011;8463;48.094;7.970;2023-09-08T00:28:31;6.90;;;6.20;;
2408;SDS011;8463;48.094;7.970;2023-09-08T00:30:56;6.60;;;5.90;;
2408;SDS011;8463;48.094;7.970;2023-09-08T00:33:25;7.47;;;6.37;;
2408;SDS011;8463;48.094;7.970;2023-09-08T00:35:50;8.40;;;6.97;;
2408;SDS011;8463;48.094;7.970;2023-09-08T00:38:18;6.70;;;6.10;;
2408;SDS011;8463;48.094;7.970;2023-09-08T00:40:44;6.73;;;6.13;;
2408;SDS011;8463;48.094;7.970;2023-09-08T00:43:10;6.30;;;5.80;;
2408;SDS011;8463;48.094;7.970;2023-09-08T00:45:40;7.83;;;7.17;;
2408;SDS011;8463;48.094;7.970;2023-09-08T00:48:07;8.43;;;6.60;;
2408;SDS011;8463;48.094;7.970;2023-09-08T00:50:39;7.40;;;6.70;;
2408;SDS011;8463;48.094;7.970;2023-09-08T00:53:05;7.40;;;6.80;;
2408;SDS011;8463;48.094;7.970;2023-09-08T00:55:31;7.80;;;5.97;;
2408;SDS011;8463;48.094;7.970;2023-09-08T00:58:00;7.60;;;6.90;;
2408;SDS011;8463;48.094;7.970;2023-09-08T01:00:26;6.93;;;6.27;;
2408;SDS011;8463;48.094;7.970;2023-09-08T01:02:52;6.87;;;6.23;;
2408;SDS011;8463;48.094;7.970;2023-09-08T01:05:19;7.13;;;6.53;;
2408;SDS011;8463;48.094;7.970;2023-09-08T01:07:45;7.83;;;7.17;;
2408;SDS011;8463;48.094;7.970;2023-09-08T01:10:12;6.70;;;6.10;;
2408;SDS011;8463;48.094;7.970;2023-09-08T01:12:39;7.13;;;6.53;;
2408;SDS011;8463;48.094;7.970;2023-09-08T01:15:05;7.10;;;6.50;;
2408;SDS011;8463;48.094;7.970;2023-09-08T01:17:32;7.17;;;6.67;;
2408;SDS011;8463;48.094;7.970;2023-09-08T01:20:15;8.03;;;7.10;;
2408;SDS011;8463;48.094;7.970;2023-09-08T01:25:40;7.13;;;6.40;;
2408;SDS011;8463;48.094;7.970;2023-09-08T01:28:22;7.83;;;6.93;;
2408;SDS011;8463;48.094;7.970;2023-09-08T01:30:49;6.60;;;6.00;;
2408;SDS011;8463;48.094;7.970;2023-09-08T01:33:16;7.27;;;6.57;;
2408;SDS011;8463;48.094;7.970;2023-09-08T01:35:42;7.33;;;6.73;;
2408;SDS011;8463;48.094;7.970;2023-09-08T01:38:08;7.73;;;7.10;;
2408;SDS011;8463;48.094;7.970;2023-09-08T01:40:34;7.50;;;6.73;;
2408;SDS011;8463;48.094;7.970;2023-09-08T01:43:02;7.30;;;6.70;;
2408;SDS011;8463;48.094;7.970;2023-09-08T01:45:30;6.57;;;5.90;;
2408;SDS011;8463;48.094;7.970;2023-09-08T01:48:01;6.53;;;5.93;;
2408;SDS011;8463;48.094;7.970;2023-09-08T01:50:27;7.23;;;6.53;;
2408;SDS011;8463;48.094;7.970;2023-09-08T01:52:53;6.90;;;6.30;;
2408;SDS011;8463;48.094;7.970;2023-09-08T01:55:18;8.53;;;7.07;;
2408;SDS011;8463;48.094;7.970;2023-09-08T01:57:45;7.67;;;6.83;;
2408;SDS011;8463;48.094;7.970;2023-09-08T02:00:17;6.60;;;6.00;;
2408;SDS011;8463;48.094;7.970;2023-09-08T02:02:43;7.53;;;6.77;;
2408;SDS011;8463;48.094;7.970;2023-09-08T02:05:09;7.13;;;6.53;;
2408;SDS011;8463;48.094;7.970;2023-09-08T02:07:35;7.00;;;6.37;;
2408;SDS011;8463;48.094;7.970;2023-09-08T02:10:00;7.10;;;6.40;;
2408;SDS011;8463;48.094;7.970;2023-09-08T02:12:26;7.63;;;6.13;;
2408;SDS011;8463;48.094;7.970;2023-09-08T02:14:52;6.80;;;6.20;;
2408;SDS011;8463;48.094;7.970;2023-09-08T02:17:17;7.17;;;6.47;;
2408;SDS011;8463;48.094;7.970;2023-09-08T02:19:44;7.60;;;6.90;;
2408;SDS011;8463;48.094;7.970;2023-09-08T02:22:09;7.17;;;6.30;;
2408;SDS011;8463;48.094;7.970;2023-09-08T02:24:35;6.20;;;5.67;;
2408;SDS011;8463;48.094;7.970;2023-09-08T02:27:03;6.87;;;6.37;;
2408;SDS011;8463;48.094;7.970;2023-09-08T02:29:29;6.90;;;6.30;;
2408;SDS011;8463;48.094;7.970;2023-09-08T02:31:56;7.23;;;6.53;;
2408;SDS011;8463;48.094;7.970;2023-09-08T02:34:21;6.47;;;5.97;;
2408;SDS011;8463;48.094;7.970;2023-09-08T02:36:47;7.87;;;6.33;;
2408;SDS011;8463;48.094;7.970;2023-09-08T02:39:13;7.33;;;6.70;;
2408;SDS011;8463;48.094;7.970;2023-09-08T02:41:38;7.40;;;6.70;;
2408;SDS011;8463;48.094;7.970;2023-09-08T02:44:04;7.70;;;6.87;;
2408;SDS011;8463;48.094;7.970;2023-09-08T02:46:31;7.23;;;6.63;;
2408;SDS011;8463;48.094;7.970;2023-09-08T02:48:57;7.50;;;5.97;;
2408;SDS011;8463;48.094;7.970;2023-09-08T02:51:22;7.40;;;6.80;;
2408;SDS011;8463;48.094;7.970;2023-09-08T02:53:48;7.00;;;6.30;;
2408;SDS011;8463;48.094;7.970;2023-09-08T02:56:14;6.00;;;5.50;;
2408;SDS011;8463;48.094;7.970;2023-09-08T02:58:39;7.23;;;6.63;;
2408;SDS011;8463;48.094;7.970;2023-09-08T03:01:14;9.60;;;6.80;;
2408;SDS011;8463;48.094;7.970;2023-09-08T03:03:44;6.60;;;6.03;;
2408;SDS011;8463;48.094;7.970;2023-09-08T03:06:12;7.57;;;6.53;;
2408;SDS011;8463;48.094;7.970;2023-09-08T03:08:39;6.93;;;6.43;;
2408;SDS011;8463;48.094;7.970;2023-09-08T03:11:05;6.37;;;5.77;;
2408;SDS011;8463;48.094;7.970;2023-09-08T03:13:34;6.97;;;6.27;;
2408;SDS011;8463;48.094;7.970;2023-09-08T03:16:07;6.87;;;6.20;;
2408;SDS011;8463;48.094;7.970;2023-09-08T03:18:33;7.33;;;6.70;;
2408;SDS011;8463;48.094;7.970;2023-09-08T03:21:04;7.50;;;6.80;;
2408;SDS011;8463;48.094;7.970;2023-09-08T03:23:44;8.30;;;7.60;;
2408;SDS011;8463;48.094;7.970;2023-09-08T03:26:13;7.80;;;7.00;;
2408;SDS011;8463;48.094;7.970;2023-09-08T03:28:41;7.57;;;7.00;;
2408;SDS011;8463;48.094;7.970;2023-09-08T03:31:07;7.23;;;6.63;;
2408;SDS011;8463;48.094;7.970;2023-09-08T03:33:33;8.43;;;7.63;;
2408;SDS011;8463;48.094;7.970;2023-09-08T03:36:01;7.57;;;6.87;;
2408;SDS011;8463;48.094;7.970;2023-09-08T03:38:27;7.93;;;7.23;;
2408;SDS011;8463;48.094;7.970;2023-09-08T03:40:53;7.60;;;6.80;;
2408;SDS011;8463;48.094;7.970;2023-09-08T03:43:18;7.83;;;7.13;;
2408;SDS011;8463;48.094;7.970;2023-09-08T03:45:44;7.80;;;7.10;;
2408;SDS011;8463;48.094;7.970;2023-09-08T03:48:10;7.40;;;6.33;;
2408;SDS011;8463;48.094;7.970;2023-09-08T03:50:36;7.43;;;6.77;;
2408;SDS011;8463;48.094;7.970;2023-09-08T03:53:02;7.30;;;6.60;;
2408;SDS011;8463;48.094;7.970;2023-09-08T03:55:28;7.23;;;6.60;;
2408;SDS011;8463;48.094;7.970;2023-09-08T03:57:56;7.67;;;6.97;;
2408;SDS011;8463;48.094;7.970;2023-09-08T04:00:23;7.90;;;7.20;;
2408;SDS011;8463;48.094;7.970;2023-09-08T04:02:51;7.20;;;6.50;;
2408;SDS011;8463;48.094;7.970;2023-09-08T04:05:17;8.33;;;7.63;;
2408;SDS011;8463;48.094;7.970;2023-09-08T04:07:46;7.93;;;6.50;;
2408;SDS011;8463;48.094;7.970;2023-09-08T04:10:14;7.20;;;6.60;;
2408;SDS011;8463;48.094;7.970;2023-09-08T04:12:40;7.60;;;6.93;;
2408;SDS011;8463;48.094;7.970;2023-09-08T04:15:08;7.43;;;6.80;;
2408;SDS011;8463;48.094;7.970;2023-09-08T04:17:34;8.23;;;7.53;;
2408;SDS011;8463;48.094;7.970;2023-09-08T04:20:04;7.40;;;6.70;;
2408;SDS011;8463;48.094;7.970;2023-09-08T04:22:30;7.43;;;6.83;;
2408;SDS011;8463;48.094;7.970;2023-09-08T04:25:02;9.13;;;7.73;;
2408;SDS011;8463;48.094;7.970;2023-09-08T04:27:28;8.37;;;7.50;;
2408;SDS011;8463;48.094;7.970;2023-09-08T04:29:54;6.90;;;6.30;;
2408;SDS011;8463;48.094;7.970;2023-09-08T04:32:19;7.30;;;6.60;;
2408;SDS011;8463;48.094;7.970;2023-09-08T04:34:45;7.87;;;7.27;;
2408;SDS011;8463;48.094;7.970;2023-09-08T04:37:10;7.67;;;6.97;;
2408;SDS011;8463;48.094;7.970;2023-09-08T04:39:42;8.23;;;7.53;;
2408;SDS011;8463;48.094;7.970;2023-09-08T04:42:09;7.17;;;6.57;;
2408;SDS011;8463;48.094;7.970;2023-09-08T04:44:35;7.57;;;6.97;;
2408;SDS011;8463;48.094;7.970;2023-09-08T04:47:03;7.20;;;6.70;;
2408;SDS011;8463;48.094;7.970;2023-09-08T04:52:51;8.20;;;7.47;;
2408;SDS011;8463;48.094;7.970;2023-09-08T04:55:19;8.50;;;7.80;;
2408;SDS011;8463;48.094;7.970;2023-09-08T04:57:47;9.27;;;8.37;;
2408;SDS011;8463;48.094;7.970;2023-09-08T05:00:13;8.03;;;7.33;;
2408;SDS011;8463;48.094;7.970;2023-09-08T05:12:44;8.60;;;7.70;;
2408;SDS011;8463;48.094;7.970;2023-09-08T05:15:10;6.87;;;6.20;;
2408;SDS011;8463;48.094;7.970;2023-09-08T05:17:40;8.17;;;7.53;;
2408;SDS011;8463;48.094;7.970;2023-09-08T05:20:06;7.80;;;7.10;;
2408;SDS011;8463;48.094;7.970;2023-09-08T05:22:32;7.90;;;7.20;;
2408;SDS011;8463;48.094;7.970;2023-09-08T05:25:00;8.77;;;8.00;;
2408;SDS011;8463;48.094;7.970;2023-09-08T05:27:25;8.23;;;7.50;;
2408;SDS011;8463;48.094;7.970;2023-09-08T05:29:52;7.03;;;6.40;;
2408;SDS011;8463;48.094;7.970;2023-09-08T05:32:17;7.70;;;7.03;;
2408;SDS011;8463;48.094;7.970;2023-09-08T05:34:43;8.13;;;7.30;;
2408;SDS011;8463;48.094;7.970;2023-09-08T05:37:09;7.90;;;7.10;;
2408;SDS011;8463;48.094;7.970;2023-09-08T05:39:41;7.20;;;6.50;;
2408;SDS011;8463;48.094;7.970;2023-09-08T05:42:07;8.10;;;7.37;;
2408;SDS011;8463;48.094;7.970;2023-09-08T05:44:34;7.97;;;7.30;;
2408;SDS011;8463;48.094;7.970;2023-09-08T05:47:02;8.40;;;7.60;;
2408;SDS011;8463;48.094;7.970;2023-09-08T05:49:28;7.90;;;6.70;;
2408;SDS011;8463;48.094;7.970;2023-09-08T05:51:54;7.07;;;6.47;;
2408;SDS011;8463;48.094;7.970;2023-09-08T05:54:19;8.00;;;7.30;;
2408;SDS011;8463;48.094;7.970;2023-09-08T05:56:47;6.73;;;6.03;;
2408;SDS011;8463;48.094;7.970;2023-09-08T05:59:12;6.73;;;6.13;;
2408;SDS011;8463;48.094;7.970;2023-09-08T06:01:39;7.20;;;6.50;;
2408;SDS011;8463;48.094;7.970;2023-09-08T06:04:09;7.47;;;6.70;;
2408;SDS011;8463;48.094;7.970;2023-09-08T06:06:35;7.80;;;7.10;;
2408;SDS011;8463;48.094;7.970;2023-09-08T06:09:00;7.93;;;7.33;;
2408;SDS011;8463;48.094;7.970;2023-09-08T06:11:26;7.37;;;6.67;;
2408;SDS011;8463;48.094;7.970;2023-09-08T06:17:14;7.60;;;6.90;;
2408;SDS011;8463;48.094;7.970;2023-09-08T06:19:46;8.27;;;7.57;;
2408;SDS011;8463;48.094;7.970;2023-09-08T06:22:12;7.90;;;7.20;;
2408;SDS011;8463;48.094;7.970;2023-09-08T06:24:37;7.00;;;6.40;;
2408;SDS011;8463;48.094;7.970;2023-09-08T06:27:03;7.77;;;7.07;;
2408;SDS011;8463;48.094;7.970;2023-09-08T06:29:29;7.33;;;6.73;;
2408;SDS011;8463;48.094;7.970;2023-09-08T06:32:00;7.93;;;7.13;;
2408;SDS011;8463;48.094;7.970;2023-09-08T06:34:26;7.73;;;6.93;;
2408;SDS011;8463;48.094;7.970;2023-09-08T06:36:54;7.70;;;7.10;;
2408;SDS011;8463;48.094;7.970;2023-09-08T06:39:20;7.43;;;6.80;;
2408;SDS011;8463;48.094;7.970;2023-09-08T06:41:46;6.70;;;6.10;;
2408;SDS011;8463;48.094;7.970;2023-09-08T06:44:12;7.90;;;7.20;;
2408;SDS011;8463;48.094;7.970;2023-09-08T06:46:38;8.50;;;7.10;;
2408;SDS011;8463;48.094;7.970;2023-09-08T06:49:03;7.77;;;7.20;;
2408;SDS011;8463;48.094;7.970;2023-09-08T06:51:29;7.57;;;6.87;;
2408;SDS011;8463;48.094;7.970;2023-09-08T06:53:55;7.40;;;6.80;;
2408;SDS011;8463;48.094;7.970;2023-09-08T06:56:22;7.80;;;7.10;;
2408;SDS011;8463;48.094;7.970;2023-09-08T06:58:47;7.80;;;7.20;;
2408;SDS011;8463;48.094;7.970;2023-09-08T07:01:13;8.03;;;7.37;;
2408;SDS011;8463;48.094;7.970;2023-09-08T07:03:39;7.50;;;6.80;;
2408;SDS011;8463;48.094;7.970;2023-09-08T07:06:04;7.63;;;6.70;;
2408;SDS011;8463;48.094;7.970;2023-09-08T07:08:30;5.90;;;5.40;;
2408;SDS011;8463;48.094;7.970;2023-09-08T07:10:58;6.57;;;6.00;;
2408;SDS011;8463;48.094;7.970;2023-09-08T07:13:23;7.70;;;7.00;;
2408;SDS011;8463;48.094;7.970;2023-09-08T07:15:49;6.93;;;6.33;;
2408;SDS011;8463;48.094;7.970;2023-09-08T07:18:15;6.80;;;6.20;;
2408;SDS011;8463;48.094;7.970;2023-09-08T07:20:40;7.63;;;7.03;;
2408;SDS011;8463;48.094;7.970;2023-09-08T07:23:06;6.67;;;6.17;;
2408;SDS011;8463;48.094;7.970;2023-09-08T07:25:32;7.63;;;6.93;;
2408;SDS011;8463;48.094;7.970;2023-09-08T07:28:03;7.20;;;6.60;;
2408;SDS011;8463;48.094;7.970;2023-09-08T07:30:28;6.70;;;6.20;;
2408;SDS011;8463;48.094;7.970;2023-09-08T07:32:56;7.20;;;6.50;;
2408;SDS011;8463;48.094;7.970;2023-09-08T07:35:29;6.30;;;5.80;;
2408;SDS011;8463;48.094;7.970;2023-09-08T07:37:55;6.23;;;5.77;;
2408;SDS011;8463;48.094;7.970;2023-09-08T07:40:21;6.77;;;6.20;;
2408;SDS011;8463;48.094;7.970;2023-09-08T07:42:46;7.17;;;6.57;;
2408;SDS011;8463;48.094;7.970;2023-09-08T07:45:12;6.27;;;5.77;;
2408;SDS011;8463;48.094;7.970;2023-09-08T07:47:41;7.07;;;6.37;;
2408;SDS011;8463;48.094;7.970;2023-09-08T07:52:49;6.80;;;6.10;;
2408;SDS011;8463;48.094;7.970;2023-09-08T07:55:19;7.23;;;6.63;;
2408;SDS011;8463;48.094;7.970;2023-09-08T07:57:49;7.30;;;6.80;;
2408;SDS011;8463;48.094;7.970;2023-09-08T08:00:15;6.43;;;5.93;;
2408;SDS011;8463;48.094;7.970;2023-09-08T08:02:45;7.30;;;6.60;;
2408;SDS011;8463;48.094;7.970;2023-09-08T08:05:15;6.30;;;5.80;;
2408;SDS011;8463;48.094;7.970;2023-09-08T08:07:47;6.83;;;6.23;;
2408;SDS011;8463;48.094;7.970;2023-09-08T08:10:13;6.30;;;5.83;;
2408;SDS011;8463;48.094;7.970;2023-09-08T08:12:39;7.77;;;7.17;;
2408;SDS011;8463;48.094;7.970;2023-09-08T08:15:09;7.03;;;6.43;;
2408;SDS011;8463;48.094;7.970;2023-09-08T08:17:35;6.50;;;5.87;;
2408;SDS011;8463;48.094;7.970;2023-09-08T08:20:02;6.60;;;6.10;;
2408;SDS011;8463;48.094;7.970;2023-09-08T08:22:44;6.03;;;5.63;;
2408;SDS011;8463;48.094;7.970;2023-09-08T08:25:12;6.63;;;6.13;;
2408;SDS011;8463;48.094;7.970;2023-09-08T08:27:38;8.27;;;6.60;;
2408;SDS011;8463;48.094;7.970;2023-09-08T08:30:06;8.30;;;6.80;;
2408;SDS011;8463;48.094;7.970;2023-09-08T08:32:32;6.80;;;6.20;;
2408;SDS011;8463;48.094;7.970;2023-09-08T08:34:58;6.97;;;6.47;;
2408;SDS011;8463;48.094;7.970;2023-09-08T08:37:24;7.60;;;6.97;;
2408;SDS011;8463;48.094;7.970;2023-09-08T08:39:52;6.60;;;6.00;;
2408;SDS011;8463;48.094;7.970;2023-09-08T08:42:21;6.83;;;6.17;;
2408;SDS011;8463;48.094;7.970;2023-09-08T08:44:47;7.00;;;6.40;;
2408;SDS011;8463;48.094;7.970;2023-09-08T08:47:13;7.13;;;6.60;;
2408;SDS011;8463;48.094;7.970;2023-09-08T08:49:41;7.03;;;6.43;;
2408;SDS011;8463;48.094;7.970;2023-09-08T08:52:18;8.17;;;7.27;;
2408;SDS011;8463;48.094;7.970;2023-09-08T08:54:51;6.93;;;6.40;;
2408;SDS011;8463;48.094;7.970;2023-09-08T08:57:16;7.20;;;6.47;;
2408;SDS011;8463;48.094;7.970;2023-09-08T08:59:42;7.43;;;6.73;;
2408;SDS011;8463;48.094;7.970;2023-09-08T09:02:12;8.80;;;8.00;;
2408;SDS011;8463;48.094;7.970;2023-09-08T09:04:48;7.87;;;7.17;;
2408;SDS011;8463;48.094;7.970;2023-09-08T09:07:14;7.73;;;7.10;;
2408;SDS011;8463;48.094;7.970;2023-09-08T09:09:40;8.00;;;7.40;;
2408;SDS011;8463;48.094;7.970;2023-09-08T09:12:06;8.97;;;7.50;;
2408;SDS011;8463;48.094;7.970;2023-09-08T09:14:44;7.70;;;7.10;;
2408;SDS011;8463;48.094;7.970;2023-09-08T09:17:13;6.83;;;6.13;;
2408;SDS011;8463;48.094;7.970;2023-09-08T09:19:39;9.23;;;8.47;;
2408;SDS011;8463;48.094;7.970;2023-09-08T09:22:06;7.57;;;6.97;;
2408;SDS011;8463;48.094;7.970;2023-09-08T09:27:08;8.87;;;6.70;;
2408;SDS011;8463;48.094;7.970;2023-09-08T09:29:45;6.63;;;6.13;;
2408;SDS011;8463;48.094;7.970;2023-09-08T09:32:12;6.20;;;5.60;;
2408;SDS011;8463;48.094;7.970;2023-09-08T09:34:52;6.37;;;5.87;;
2408;SDS011;8463;48.094;7.970;2023-09-08T09:37:18;6.73;;;6.13;;
2408;SDS011;8463;48.094;7.970;2023-09-08T09:39:54;7.93;;;7.23;;
2408;SDS011;8463;48.094;7.970;2023-09-08T09:42:20;7.50;;;6.80;;
2408;SDS011;8463;48.094;7.970;2023-09-08T09:44:53;6.70;;;6.30;;
2408;SDS011;8463;48.094;7.970;2023-09-08T09:47:19;6.60;;;6.10;;
2408;SDS011;8463;48.094;7.970;2023-09-08T09:49:51;7.13;;;6.53;;
2408;SDS011;8463;48.094;7.970;2023-09-08T09:52:25;6.43;;;5.83;;
2408;SDS011;8463;48.094;7.970;2023-09-08T09:54:52;6.67;;;6.17;;
2408;SDS011;8463;48.094;7.970;2023-09-08T09:57:21;6.43;;;5.90;;
2408;SDS011;8463;48.094;7.970;2023-09-08T09:59:49;7.23;;;6.73;;
2408;SDS011;8463;48.094;7.970;2023-09-08T10:02:16;7.80;;;7.03;;
2408;SDS011;8463;48.094;7.970;2023-09-08T10:04:49;6.67;;;6.07;;
2408;SDS011;8463;48.094;7.970;2023-09-08T10:07:16;6.57;;;6.07;;
2408;SDS011;8463;48.094;7.970;2023-09-08T10:09:42;5.83;;;5.33;;
2408;SDS011;8463;48.094;7.970;2023-09-08T10:12:08;6.83;;;6.30;;
2408;SDS011;8463;48.094;7.970;2023-09-08T10:14:38;6.47;;;5.93;;
2408;SDS011;8463;48.094;7.970;2023-09-08T10:17:08;5.73;;;5.23;;
2408;SDS011;8463;48.094;7.970;2023-09-08T10:19:43;6.63;;;6.00;;
2408;SDS011;8463;48.094;7.970;2023-09-08T10:22:20;7.00;;;6.30;;
2408;SDS011;8463;48.094;7.970;2023-09-08T10:24:49;6.90;;;6.33;;
2408;SDS011;8463;48.094;7.970;2023-09-08T10:27:16;6.53;;;6.03;;
2408;SDS011;8463;48.094;7.970;2023-09-08T10:29:46;6.87;;;5.70;;
2408;SDS011;8463;48.094;7.970;2023-09-08T10:32:18;8.67;;;6.60;;
2408;SDS011;8463;48.094;7.970;2023-09-08T10:34:45;5.83;;;5.37;;
2408;SDS011;8463;48.094;7.970;2023-09-08T10:37:21;7.13;;;5.10;;
2408;SDS011;8463;48.094;7.970;2023-09-08T10:39:50;7.00;;;6.40;;
2408;SDS011;8463;48.094;7.970;2023-09-08T10:47:18;8.97;;;6.77;;
2408;SDS011;8463;48.094;7.970;2023-09-08T10:49:44;5.43;;;4.93;;
2408;SDS011;8463;48.094;7.970;2023-09-08T10:52:10;5.60;;;5.20;;
2408;SDS011;8463;48.094;7.970;2023-09-08T10:54:42;6.63;;;6.03;;
2408;SDS011;8463;48.094;7.970;2023-09-08T10:57:17;6.47;;;5.87;;
2408;SDS011;8463;48.094;7.970;2023-09-08T11:02:32;5.60;;;5.10;;
2408;SDS011;8463;48.094;7.970;2023-09-08T11:05:09;6.17;;;5.13;;
2408;SDS011;8463;48.094;7.970;2023-09-08T11:07:37;5.30;;;4.80;;
2408;SDS011;8463;48.094;7.970;2023-09-08T11:10:03;5.77;;;5.27;;
2408;SDS011;8463;48.094;7.970;2023-09-08T11:12:30;5.60;;;5.03;;
2408;SDS011;8463;48.094;7.970;2023-09-08T11:14:57;6.47;;;5.87;;
2408;SDS011;8463;48.094;7.970;2023-09-08T11:17:30;5.67;;;5.27;;
2408;SDS011;8463;48.094;7.970;2023-09-08T11:19:57;5.57;;;5.10;;
2408;SDS011;8463;48.094;7.970;2023-09-08T11:22:25;6.10;;;5.60;;
2408;SDS011;8463;48.094;7.970;2023-09-08T11:24:57;7.73;;;5.70;;
2408;SDS011;8463;48.094;7.970;2023-09-08T11:27:23;6.70;;;6.10;;
2408;SDS011;8463;48.094;7.970;2023-09-08T11:29:51;6.60;;;6.10;;
2408;SDS011;8463;48.094;7.970;2023-09-08T11:32:23;6.37;;;5.87;;
2408;SDS011;8463;48.094;7.970;2023-09-08T11:34:52;5.97;;;5.47;;
2408;SDS011;8463;48.094;7.970;2023-09-08T11:37:17;6.27;;;5.67;;
2408;SDS011;8463;48.094;7.970;2023-09-08T11:39:44;6.50;;;5.90;;
2408;SDS011;8463;48.094;7.970;2023-09-08T11:42:14;6.37;;;5.90;;
2408;SDS011;8463;48.094;7.970;2023-09-08T11:44:41;6.70;;;6.20;;
2408;SDS011;8463;48.094;7.970;2023-09-08T11:47:08;7.80;;;5.17;;
2408;SDS011;8463;48.094;7.970;2023-09-08T11:49:36;5.57;;;5.07;;
2408;SDS011;8463;48.094;7.970;2023-09-08T11:52:03;5.23;;;4.83;;
2408;SDS011;8463;48.094;7.970;2023-09-08T11:54:31;5.90;;;5.40;;
2408;SDS011;8463;48.094;7.970;2023-09-08T11:57:02;5.73;;;5.20;;
2408;SDS011;8463;48.094;7.970;2023-09-08T11:59:30;5.23;;;4.83;;
2408;SDS011;8463;48.094;7.970;2023-09-08T12:02:00;6.00;;;5.43;;
2408;SDS011;8463;48.094;7.970;2023-09-08T12:04:26;5.87;;;4.53;;
2408;SDS011;8463;48.094;7.970;2023-09-08T12:06:53;6.43;;;5.50;;
2408;SDS011;8463;48.094;7.970;2023-09-08T12:09:29;5.37;;;4.87;;
2408;SDS011;8463;48.094;7.970;2023-09-08T12:11:56;5.90;;;5.40;;
2408;SDS011;8463;48.094;7.970;2023-09-08T12:14:29;7.10;;;6.20;;
2408;SDS011;8463;48.094;7.970;2023-09-08T12:17:08;5.30;;;4.80;;
2408;SDS011;8463;48.094;7.970;2023-09-08T12:19:34;6.17;;;5.67;;
2408;SDS011;8463;48.094;7.970;2023-09-08T12:22:08;5.10;;;4.70;;
2408;SDS011;8463;48.094;7.970;2023-09-08T12:24:56;4.83;;;4.20;;
2408;SDS011;8463;48.094;7.970;2023-09-08T12:27:22;5.30;;;4.80;;
2408;SDS011;8463;48.094;7.970;2023-09-08T12:32:28;5.63;;;4.50;;
2408;SDS011;8463;48.094;7.970;2023-09-08T12:34:56;5.03;;;4.53;;
2408;SDS011;8463;48.094;7.970;2023-09-08T12:37:23;4.93;;;4.53;;
2408;SDS011;8463;48.094;7.970;2023-09-08T12:39:50;5.13;;;4.70;;
2408;SDS011;8463;48.094;7.970;2023-09-08T12:42:19;3.90;;;3.60;;
2408;SDS011;8463;48.094;7.970;2023-09-08T12:44:45;4.70;;;4.27;;
2408;SDS011;8463;48.094;7.970;2023-09-08T12:47:14;4.90;;;4.50;;
2408;SDS011;8463;48.094;7.970;2023-09-08T12:49:42;4.23;;;3.83;;
2408;SDS011;8463;48.094;7.970;2023-09-08T12:52:08;4.07;;;3.70;;
2408;SDS011;8463;48.094;7.970;2023-09-08T12:54:40;3.63;;;3.33;;
2408;SDS011;8463;48.094;7.970;2023-09-08T12:57:08;5.17;;;4.30;;
2408;SDS011;8463;48.094;7.970;2023-09-08T12:59:34;4.03;;;3.33;;
2408;SDS011;8463;48.094;7.970;2023-09-08T13:02:00;5.83;;;3.50;;
2408;SDS011;8463;48.094;7.970;2023-09-08T13:04:26;4.27;;;3.97;;
2408;SDS011;8463;48.094;7.970;2023-09-08T13:06:51;4.40;;;4.00;;
2408;SDS011;8463;48.094;7.970;2023-09-08T13:09:19;4.77;;;4.40;;
2408;SDS011;8463;48.094;7.970;2023-09-08T13:11:45;4.40;;;4.10;;
2408;SDS011;8463;48.094;7.970;2023-09-08T13:14:11;3.87;;;3.47;;
2408;SDS011;8463;48.094;7.970;2023-09-08T13:16:36;4.03;;;3.70;;
2408;SDS011;8463;48.094;7.970;2023-09-08T13:19:02;5.50;;;3.30;;
2408;SDS011;8463;48.094;7.970;2023-09-08T13:21:37;5.37;;;3.70;;
2408;SDS011;8463;48.094;7.970;2023-09-08T13:24:05;4.03;;;3.73;;
2408;SDS011;8463;48.094;7.970;2023-09-08T13:26:32;3.97;;;3.67;;
2408;SDS011;8463;48.094;7.970;2023-09-08T13:28:57;4.20;;;3.70;;
2408;SDS011;8463;48.094;7.970;2023-09-08T13:31:23;7.07;;;4.17;;
2408;SDS011;8463;48.094;7.970;2023-09-08T13:33:48;4.03;;;3.73;;
2408;SDS011;8463;48.094;7.970;2023-09-08T13:36:20;3.50;;;3.20;;
2408;SDS011;8463;48.094;7.970;2023-09-08T13:38:46;6.67;;;4.50;;
2408;SDS011;8463;48.094;7.970;2023-09-08T13:41:11;4.20;;;3.90;;
2408;SDS011;8463;48.094;7.970;2023-09-08T13:43:37;4.27;;;3.87;;
2408;SDS011;8463;48.094;7.970;2023-09-08T13:46:09;4.17;;;3.87;;
2408;SDS011;8463;48.094;7.970;2023-09-08T13:48:34;3.80;;;3.50;;
2408;SDS011;8463;48.094;7.970;2023-09-08T13:51:06;6.70;;;4.10;;
2408;SDS011;8463;48.094;7.970;2023-09-08T13:53:31;5.60;;;3.60;;
2408;SDS011;8463;48.094;7.970;2023-09-08T13:55:58;4.50;;;4.10;;
2408;SDS011;8463;48.094;7.970;2023-09-08T13:58:24;6.57;;;4.37;;
2408;SDS011;8463;48.094;7.970;2023-09-08T14:00:50;4.13;;;3.73;;
2408;SDS011;8463;48.094;7.970;2023-09-08T14:03:18;4.53;;;4.13;;
2408;SDS011;8463;48.094;7.970;2023-09-08T14:05:44;4.40;;;4.00;;
2408;SDS011;8463;48.094;7.970;2023-09-08T14:08:09;4.70;;;4.30;;
2408;SDS011;8463;48.094;7.970;2023-09-08T14:10:35;4.70;;;4.30;;
2408;SDS011;8463;48.094;7.970;2023-09-08T14:13:01;4.80;;;4.50;;
2408;SDS011;8463;48.094;7.970;2023-09-08T14:15:33;4.80;;;3.97;;
2408;SDS011;8463;48.094;7.970;2023-09-08T14:17:58;4.67;;;3.83;;
2408;SDS011;8463;48.094;7.970;2023-09-08T14:20:24;6.63;;;3.87;;
2408;SDS011;8463;48.094;7.970;2023-09-08T14:22:49;4.90;;;4.60;;
2408;SDS011;8463;48.094;7.970;2023-09-08T14:25:18;4.30;;;3.90;;
2408;SDS011;8463;48.094;7.970;2023-09-08T14:27:44;5.17;;;4.67;;
2408;SDS011;8463;48.094;7.970;2023-09-08T14:30:09;6.13;;;4.07;;
2408;SDS011;8463;48.094;7.970;2023-09-08T14:32:35;5.03;;;3.73;;
2408;SDS011;8463;48.094;7.970;2023-09-08T14:35:01;4.30;;;3.90;;
2408;SDS011;8463;48.094;7.970;2023-09-08T14:37:33;4.37;;;3.97;;
2408;SDS011;8463;48.094;7.970;2023-09-08T14:39:59;4.83;;;4.37;;
2408;SDS011;8463;48.094;7.970;2023-09-08T14:42:24;4.57;;;4.27;;
2408;SDS011;8463;48.094;7.970;2023-09-08T14:44:50;5.60;;;3.57;;
2408;SDS011;8463;48.094;7.970;2023-09-08T14:47:22;4.50;;;4.10;;
2408;SDS011;8463;48.094;7.970;2023-09-08T14:49:47;4.20;;;3.90;;
2408;SDS011;8463;48.094;7.970;2023-09-08T14:52:13;5.53;;;4.43;;
2408;SDS011;8463;48.094;7.970;2023-09-08T14:54:38;4.40;;;4.00;;
2408;SDS011;8463;48.094;7.970;2023-09-08T14:57:07;4.97;;;3.67;;
2408;SDS011;8463;48.094;7.970;2023-09-08T14:59:33;4.20;;;3.80;;
2408;SDS011;8463;48.094;7.970;2023-09-08T15:01:58;3.80;;;3.50;;
2408;SDS011;8463;48.094;7.970;2023-09-08T15:04:24;4.50;;;4.10;;
2408;SDS011;8463;48.094;7.970;2023-09-08T15:06:50;4.60;;;4.23;;
2408;SDS011;8463;48.094;7.970;2023-09-08T15:09:16;5.20;;;4.73;;
2408;SDS011;8463;48.094;7.970;2023-09-08T15:11:41;5.47;;;3.60;;
2408;SDS011;8463;48.094;7.970;2023-09-08T15:14:07;4.40;;;3.60;;
2408;SDS011;8463;48.094;7.970;2023-09-08T15:16:34;4.43;;;4.13;;
2408;SDS011;8463;48.094;7.970;2023-09-08T15:19:00;4.97;;;4.47;;
2408;SDS011;8463;48.094;7.970;2023-09-08T15:21:25;4.47;;;4.07;;
2408;SDS011;8463;48.094;7.970;2023-09-08T15:23:54;4.17;;;3.47;;
2408;SDS011;8463;48.094;7.970;2023-09-08T15:26:20;4.40;;;4.00;;
2408;SDS011;8463;48.094;7.970;2023-09-08T15:28:48;4.10;;;3.80;;
2408;SDS011;8463;48.094;7.970;2023-09-08T15:31:15;3.53;;;3.30;;
2408;SDS011;8463;48.094;7.970;2023-09-08T15:33:41;4.43;;;4.03;;
2408;SDS011;8463;48.094;7.970;2023-09-08T15:36:07;4.77;;;4.27;;
2408;SDS011;8463;48.094;7.970;2023-09-08T15:38:39;3.80;;;3.50;;
2408;SDS011;8463;48.094;7.970;2023-09-08T15:43:45;4.00;;;3.70;;
2408;SDS011;8463;48.094;7.970;2023-09-08T15:46:12;4.43;;;4.00;;
2408;SDS011;8463;48.094;7.970;2023-09-08T15:48:38;4.10;;;3.67;;
2408;SDS011;8463;48.094;7.970;2023-09-08T15:51:04;4.17;;;3.87;;
2408;SDS011;8463;48.094;7.970;2023-09-08T15:53:34;3.50;;;3.20;;
2408;SDS011;8463;48.094;7.970;2023-09-08T15:55:59;5.60;;;3.50;;